Terminal Aerodrome Forecast
Issued by NWS

Current Version | Previous Version | Text Only | Print | Product List | Glossary On
Versions: 1 2 3 4 5 6 7 8 9 10 11 12 13 14 15 16 17 18 19
000
FTUS42 KTAE 311407 AAA
TAFABY
TAF AMD
KABY 311407Z 3114/0112 24003KT P6SM BKN006
     FM311500 21007KT P6SM BKN015
     FM311600 21007KT P6SM SCT025
     FM311800 21007KT P6SM VCTS BKN035CB
      TEMPO 3119/3123 VRB15G25KT 3SM TSRA BR BKN030CB
     FM010000 18004KT P6SM SCT030 BKN100=

USA.gov is the U.S. government's official web portal to all federal, state and local government web resources and services.